Sacramento, California
Current Conditions -  °F | °C
As of 1:17 PM on Friday 31 Oct 2014 (Local Time) from KSAC Reporting Station
Overcast Overcast  
Wind Chill: 64°   Ceiling: 9000
Heat Index: 64°   Visibility: 10mi
Dew Point: 55°   Wind: 0mph
Humidity: 73%   Direction: NA
Pressure: 29.82"   Gusts: NA
Location:  38.58°N, 121.49°W
Report Text: KSAC 312017Z 00000KT 10SM SCT026 SCT036 OVC090 18/13 A2982 RMK AO2 RAB1955E10 P0000
Loading
Personal Weather Stations






























Interactive Weather Map New forecast layout! Learn more

10-Day Weather Forecast

Advertisements
Track Severe Weather on mobile